Time;durP1;ratioP1;P1;durP2;ratioP2;P2;SDS_P1;SDS_P2;PMS_P1;PMS_P2;Temp;Humidity;BMP_temperature;BMP_pressure;BME280_temperature;BME280_humidity;BME280_pressure;Samples;Min_cycle;Max_cycle;Signal;HPM_P1;HPM_P2
2020/12/19 00:01:14;;;;;;;8.27;5.90;;;;;;;;;;4958475;29;20024;-83
2020/12/19 00:03:40;;;;;;;9.23;6.10;;;;;;;;;;4959795;29;20028;-81
2020/12/19 00:06:09;;;;;;;8.33;5.73;;;;;;;;;;4958894;29;20031;-83
2020/12/19 00:08:35;;;;;;;8.93;6.23;;;;;;;;;;4955495;29;20036;-81
2020/12/19 00:11:01;;;;;;;9.30;6.53;;;;;;;;;;4956902;29;20034;-82
2020/12/19 00:13:27;;;;;;;8.30;5.80;;;;;;;;;;4960234;29;20083;-82
2020/12/19 00:15:54;;;;;;;9.83;6.20;;;;;;;;;;4959370;29;20099;-81
2020/12/19 00:18:20;;;;;;;11.17;6.17;;;;;;;;;;4958960;29;20096;-82
2020/12/19 00:20:46;;;;;;;4.30;2.80;;;;;;;;;;4960388;29;20039;-84
2020/12/19 00:23:12;;;;;;;4.73;3.30;;;;;;;;;;4957269;29;20031;-82
2020/12/19 00:25:38;;;;;;;10.13;6.53;;;;;;;;;;4957854;29;20015;-82
2020/12/19 00:28:04;;;;;;;8.60;6.30;;;;;;;;;;4960053;29;20034;-81
2020/12/19 00:30:30;;;;;;;8.47;6.20;;;;;;;;;;4960457;29;20031;-83
2020/12/19 00:32:56;;;;;;;9.33;5.63;;;;;;;;;;4943221;29;20012;-82
2020/12/19 00:35:22;;;;;;;10.97;6.57;;;;;;;;;;4960144;29;20059;-82
2020/12/19 00:37:48;;;;;;;11.77;7.37;;;;;;;;;;5057713;23;20040;-84
2020/12/19 00:40:15;;;;;;;8.37;6.93;;;;;;;;;;4960156;29;20100;-81
2020/12/19 00:42:41;;;;;;;10.77;6.63;;;;;;;;;;4960344;29;20054;-81
2020/12/19 00:45:07;;;;;;;10.10;7.07;;;;;;;;;;4957432;29;20024;-82
2020/12/19 00:47:34;;;;;;;10.33;7.40;;;;;;;;;;4957933;29;20051;-82
2020/12/19 00:50:01;;;;;;;12.70;7.07;;;;;;;;;;4960433;29;20012;-82
2020/12/19 00:52:27;;;;;;;9.17;6.70;;;;;;;;;;4960722;29;20486;-82
2020/12/19 00:54:53;;;;;;;9.63;7.27;;;;;;;;;;4961051;29;20043;-82
2020/12/19 00:57:19;;;;;;;11.50;7.70;;;;;;;;;;4963188;29;20024;-82
2020/12/19 00:59:45;;;;;;;10.40;7.50;;;;;;;;;;4960351;29;20046;-82
2020/12/19 01:02:11;;;;;;;12.97;7.03;;;;;;;;;;4958914;29;20067;-82
2020/12/19 01:04:37;;;;;;;9.93;7.10;;;;;;;;;;4959101;29;20044;-81
2020/12/19 01:07:03;;;;;;;11.17;7.80;;;;;;;;;;4959511;29;20038;-83
2020/12/19 01:09:29;;;;;;;8.53;6.43;;;;;;;;;;4959753;29;20035;-82
2020/12/19 01:11:55;;;;;;;11.73;7.97;;;;;;;;;;4961163;29;20023;-82
2020/12/19 01:14:21;;;;;;;19.40;8.07;;;;;;;;;;4963849;29;20020;-83
2020/12/19 01:16:47;;;;;;;10.23;7.13;;;;;;;;;;4963224;29;20020;-83
2020/12/19 01:19:13;;;;;;;11.47;7.47;;;;;;;;;;4960341;29;20039;-82
2020/12/19 01:21:39;;;;;;;10.50;7.23;;;;;;;;;;4958938;29;20035;-82
2020/12/19 01:24:06;;;;;;;10.40;7.07;;;;;;;;;;4959903;29;20016;-82
2020/12/19 01:26:32;;;;;;;11.27;6.87;;;;;;;;;;4962851;29;20012;-82
2020/12/19 01:28:58;;;;;;;9.23;6.60;;;;;;;;;;4962644;29;20118;-83
2020/12/19 01:31:24;;;;;;;10.43;7.80;;;;;;;;;;4959875;29;20020;-82
2020/12/19 01:33:50;;;;;;;8.97;7.13;;;;;;;;;;4959468;29;20028;-83
2020/12/19 01:36:18;;;;;;;13.43;8.00;;;;;;;;;;4961793;29;20059;-82
2020/12/19 01:38:44;;;;;;;6.57;3.60;;;;;;;;;;4961867;29;20103;-84
2020/12/19 01:41:10;;;;;;;8.33;5.43;;;;;;;;;;4956278;29;20028;-83
2020/12/19 01:43:44;;;;;;;8.17;5.53;;;;;;;;;;4960352;29;20040;-82
2020/12/19 01:46:10;;;;;;;9.97;7.43;;;;;;;;;;4960982;29;20462;-83
2020/12/19 01:48:37;;;;;;;11.83;8.07;;;;;;;;;;4959731;29;20027;-83
2020/12/19 01:51:03;;;;;;;11.67;7.33;;;;;;;;;;4959071;29;20067;-82
2020/12/19 01:53:30;;;;;;;14.60;8.63;;;;;;;;;;4960253;29;20015;-83
2020/12/19 01:55:56;;;;;;;12.60;8.60;;;;;;;;;;4960935;29;20015;-82
2020/12/19 01:58:23;;;;;;;12.47;8.63;;;;;;;;;;4959656;29;20094;-82
2020/12/19 02:00:49;;;;;;;9.57;5.67;;;;;;;;;;4957285;29;20079;-83
2020/12/19 02:03:15;;;;;;;3.00;2.10;;;;;;;;;;4960649;29;20034;-84
2020/12/19 02:05:42;;;;;;;9.20;6.20;;;;;;;;;;4958964;29;20055;-82
2020/12/19 02:08:08;;;;;;;12.17;6.80;;;;;;;;;;4959038;29;20068;-82
2020/12/19 02:10:35;;;;;;;10.10;7.83;;;;;;;;;;4960301;29;20052;-83
2020/12/19 02:13:02;;;;;;;10.40;8.27;;;;;;;;;;4958920;29;20024;-83
2020/12/19 02:15:39;;;;;;;10.17;8.03;;;;;;;;;;4957534;29;20055;-83
2020/12/19 02:18:05;;;;;;;12.10;8.43;;;;;;;;;;4958887;29;20036;-82
2020/12/19 02:20:31;;;;;;;13.17;9.40;;;;;;;;;;4959815;29;20055;-82
2020/12/19 02:22:57;;;;;;;12.97;8.70;;;;;;;;;;4961074;29;20023;-81
2020/12/19 02:25:24;;;;;;;13.43;9.27;;;;;;;;;;4961042;29;20016;-84
2020/12/19 02:27:50;;;;;;;11.20;8.47;;;;;;;;;;4961331;29;20024;-83
2020/12/19 02:30:17;;;;;;;13.80;10.23;;;;;;;;;;4961428;29;20038;-82
2020/12/19 02:32:44;;;;;;;13.27;9.13;;;;;;;;;;4960287;29;20039;-82
2020/12/19 02:35:11;;;;;;;15.27;9.33;;;;;;;;;;4961397;29;20076;-83
2020/12/19 02:40:13;;;;;;;8.07;5.17;;;;;;;;;;5115016;23;20055;-84
2020/12/19 02:42:39;;;;;;;16.17;8.20;;;;;;;;;;4962131;29;20015;-82
2020/12/19 02:45:05;;;;;;;15.60;9.00;;;;;;;;;;4958551;29;20043;-83
2020/12/19 02:47:31;;;;;;;13.00;9.33;;;;;;;;;;4962041;29;20023;-82
2020/12/19 02:49:57;;;;;;;13.80;9.97;;;;;;;;;;4961464;29;20043;-84
2020/12/19 02:57:35;;;;;;;13.27;9.57;;;;;;;;;;5006876;23;19907;-82
2020/12/19 03:00:01;;;;;;;13.90;9.97;;;;;;;;;;4961406;29;20043;-82
2020/12/19 03:02:27;;;;;;;14.53;10.03;;;;;;;;;;4960883;29;20056;-83
2020/12/19 03:04:53;;;;;;;14.57;11.23;;;;;;;;;;4956174;29;20036;-83
2020/12/19 03:07:19;;;;;;;15.30;10.53;;;;;;;;;;4956897;29;20023;-83
2020/12/19 03:09:45;;;;;;;16.30;10.40;;;;;;;;;;4958658;29;20039;-83
2020/12/19 03:12:12;;;;;;;13.77;8.33;;;;;;;;;;4959662;29;20065;-83
2020/12/19 03:14:38;;;;;;;16.30;11.30;;;;;;;;;;4961359;29;20023;-83
2020/12/19 03:17:04;;;;;;;12.40;8.47;;;;;;;;;;4960632;29;20012;-83
2020/12/19 03:19:30;;;;;;;14.77;9.43;;;;;;;;;;4960743;29;20078;-83
2020/12/19 03:21:56;;;;;;;12.33;8.37;;;;;;;;;;4958763;29;20032;-83
2020/12/19 03:24:22;;;;;;;11.70;8.23;;;;;;;;;;4957281;29;20050;-83
2020/12/19 03:26:48;;;;;;;11.70;9.13;;;;;;;;;;4955834;29;20051;-83
2020/12/19 03:29:15;;;;;;;8.50;5.93;;;;;;;;;;4957645;29;20036;-84
2020/12/19 03:31:41;;;;;;;11.70;7.73;;;;;;;;;;4959619;29;20026;-83
2020/12/19 03:34:07;;;;;;;11.30;8.73;;;;;;;;;;4958031;29;20032;-83
2020/12/19 03:36:33;;;;;;;13.60;9.90;;;;;;;;;;4958367;29;20036;-83
2020/12/19 03:38:59;;;;;;;13.23;9.10;;;;;;;;;;4956923;29;20032;-82
2020/12/19 03:41:25;;;;;;;14.33;9.73;;;;;;;;;;4956432;29;20033;-82
2020/12/19 03:43:51;;;;;;;14.37;8.57;;;;;;;;;;4956327;29;20091;-82
2020/12/19 03:46:17;;;;;;;15.33;10.10;;;;;;;;;;4958520;29;20008;-82
2020/12/19 03:48:44;;;;;;;14.80;9.77;;;;;;;;;;4957835;29;20042;-84
2020/12/19 03:51:10;;;;;;;15.47;10.43;;;;;;;;;;4957658;29;20042;-83
2020/12/19 03:53:36;;;;;;;16.23;10.23;;;;;;;;;;4955074;29;20024;-82
2020/12/19 03:56:02;;;;;;;13.77;10.00;;;;;;;;;;4957559;29;20066;-82
2020/12/19 03:58:28;;;;;;;5.30;3.30;;;;;;;;;;4958655;29;20075;-83
2020/12/19 04:00:54;;;;;;;10.83;6.63;;;;;;;;;;4956988;29;20039;-84
2020/12/19 04:03:20;;;;;;;8.87;4.33;;;;;;;;;;4959251;29;20016;-83
2020/12/19 04:05:47;;;;;;;13.80;10.60;;;;;;;;;;4959155;29;20016;-83
2020/12/19 04:08:13;;;;;;;9.07;6.07;;;;;;;;;;4960832;29;20044;-84
2020/12/19 04:10:39;;;;;;;13.53;10.30;;;;;;;;;;4955686;29;20118;-81
2020/12/19 04:13:05;;;;;;;14.87;9.50;;;;;;;;;;4957423;29;20039;-82
2020/12/19 04:15:31;;;;;;;16.70;9.73;;;;;;;;;;4957530;29;20035;-82
2020/12/19 04:17:57;;;;;;;7.00;5.20;;;;;;;;;;4941976;29;20016;-82
2020/12/19 04:20:23;;;;;;;14.23;9.87;;;;;;;;;;4957536;29;20124;-84
2020/12/19 04:22:49;;;;;;;15.27;10.83;;;;;;;;;;4957637;29;20016;-83
2020/12/19 04:25:15;;;;;;;9.80;5.93;;;;;;;;;;4959904;29;20019;-83
2020/12/19 04:27:41;;;;;;;11.43;8.73;;;;;;;;;;4960485;29;20020;-83
2020/12/19 04:32:41;;;;;;;13.43;9.65;;;;;;;;;;4959477;28;20039;-84
2020/12/19 04:35:07;;;;;;;14.10;10.67;;;;;;;;;;4960751;28;20059;-82
2020/12/19 04:37:34;;;;;;;12.47;9.00;;;;;;;;;;4960363;28;20046;-83
2020/12/19 04:40:00;;;;;;;13.37;9.37;;;;;;;;;;4960874;28;20040;-83
2020/12/19 04:42:26;;;;;;;12.53;8.30;;;;;;;;;;4960201;28;20024;-84
2020/12/19 04:44:52;;;;;;;16.70;10.03;;;;;;;;;;4959343;29;20040;-83
2020/12/19 04:47:19;;;;;;;15.60;9.23;;;;;;;;;;4958193;29;20028;-83
2020/12/19 04:49:45;;;;;;;17.20;10.47;;;;;;;;;;4958123;29;20035;-83
2020/12/19 04:52:12;;;;;;;14.93;10.73;;;;;;;;;;4960103;28;20032;-83
2020/12/19 04:54:38;;;;;;;14.17;8.70;;;;;;;;;;4960158;28;20055;-83
2020/12/19 04:57:05;;;;;;;9.67;5.10;;;;;;;;;;4960729;28;20016;-84
2020/12/19 04:59:31;;;;;;;11.37;8.63;;;;;;;;;;4960605;28;20024;-84
2020/12/19 05:02:00;;;;;;;14.50;9.87;;;;;;;;;;4960702;28;20059;-84
2020/12/19 05:04:27;;;;;;;13.20;9.03;;;;;;;;;;4960202;28;20031;-83
2020/12/19 05:06:58;;;;;;;14.93;9.70;;;;;;;;;;4960095;28;20018;-83
2020/12/19 05:09:24;;;;;;;15.83;10.30;;;;;;;;;;4944879;28;20016;-82
2020/12/19 05:11:51;;;;;;;14.20;9.77;;;;;;;;;;4959513;28;20012;-83
2020/12/19 05:14:17;;;;;;;12.77;9.80;;;;;;;;;;4959890;28;20027;-84
2020/12/19 05:16:43;;;;;;;13.30;10.47;;;;;;;;;;4959205;28;20012;-82
2020/12/19 05:19:10;;;;;;;12.27;7.23;;;;;;;;;;4958937;28;20071;-82
2020/12/19 05:21:46;;;;;;;13.43;8.37;;;;;;;;;;4958732;28;20032;-83
2020/12/19 05:24:15;;;;;;;12.93;9.33;;;;;;;;;;4959423;29;20014;-83
2020/12/19 05:26:41;;;;;;;13.90;8.97;;;;;;;;;;4958865;29;20026;-83
2020/12/19 05:29:08;;;;;;;13.77;8.90;;;;;;;;;;4959873;28;20059;-83
2020/12/19 05:31:35;;;;;;;12.17;9.30;;;;;;;;;;4958429;28;20064;-83
2020/12/19 05:34:01;;;;;;;13.70;8.10;;;;;;;;;;4957711;28;20015;-83
2020/12/19 05:36:28;;;;;;;12.33;7.83;;;;;;;;;;4962671;28;20039;-83
2020/12/19 05:39:01;;;;;;;9.00;5.50;;;;;;;;;;4962672;28;20039;-83
2020/12/19 05:41:27;;;;;;;13.60;8.53;;;;;;;;;;4962170;28;20012;-83
2020/12/19 05:43:53;;;;;;;13.20;7.10;;;;;;;;;;4962135;28;20068;-83
2020/12/19 05:46:30;;;;;;;9.50;7.07;;;;;;;;;;4961448;29;20044;-83
2020/12/19 05:48:57;;;;;;;10.73;8.43;;;;;;;;;;4958806;29;20026;-83
2020/12/19 05:51:25;;;;;;;10.10;7.57;;;;;;;;;;4961994;29;20032;-84
2020/12/19 05:53:52;;;;;;;13.17;7.23;;;;;;;;;;4957727;29;20087;-83
2020/12/19 05:56:21;;;;;;;14.07;9.37;;;;;;;;;;4959641;29;20031;-83
2020/12/19 05:58:47;;;;;;;8.43;6.70;;;;;;;;;;4955618;29;20036;-82
2020/12/19 06:01:16;;;;;;;11.93;6.97;;;;;;;;;;4954867;29;20111;-82
2020/12/19 06:03:46;;;;;;;12.07;8.23;;;;;;;;;;4939676;28;20036;-82
2020/12/19 06:06:13;;;;;;;12.30;8.00;;;;;;;;;;4954523;29;20027;-82
2020/12/19 06:08:39;;;;;;;9.33;5.43;;;;;;;;;;4955571;29;20421;-81
2020/12/19 06:11:07;;;;;;;9.13;6.30;;;;;;;;;;4953453;29;20023;-82
2020/12/19 06:13:33;;;;;;;12.13;5.17;;;;;;;;;;4956610;29;20036;-82
2020/12/19 06:16:04;;;;;;;11.90;9.00;;;;;;;;;;4957706;29;20060;-82
2020/12/19 06:18:46;;;;;;;9.97;5.37;;;;;;;;;;4958092;29;20100;-82
2020/12/19 06:21:12;;;;;;;13.17;8.40;;;;;;;;;;4956528;29;20027;-82
2020/12/19 06:23:39;;;;;;;11.87;7.57;;;;;;;;;;4955901;29;20051;-83
2020/12/19 06:26:05;;;;;;;11.73;8.00;;;;;;;;;;4956958;29;20028;-82
2020/12/19 06:28:41;;;;;;;12.43;8.67;;;;;;;;;;4953127;29;20028;-81
2020/12/19 06:31:07;;;;;;;13.73;7.63;;;;;;;;;;4956314;29;20052;-82
2020/12/19 06:33:37;;;;;;;10.07;6.77;;;;;;;;;;4957472;29;20015;-80
2020/12/19 06:36:05;;;;;;;12.53;9.17;;;;;;;;;;4961082;29;20095;-83
2020/12/19 06:38:41;;;;;;;12.73;7.97;;;;;;;;;;4961057;28;20039;-82
2020/12/19 06:41:07;;;;;;;12.60;8.23;;;;;;;;;;4960975;28;20121;-82
2020/12/19 06:43:33;;;;;;;14.40;9.90;;;;;;;;;;4956368;29;20028;-81
2020/12/19 06:45:59;;;;;;;15.07;8.83;;;;;;;;;;4957459;29;20008;-83
2020/12/19 06:48:35;;;;;;;11.90;7.77;;;;;;;;;;4960367;29;20034;-83
2020/12/19 06:51:02;;;;;;;9.13;5.77;;;;;;;;;;4959858;29;20028;-81
2020/12/19 06:56:00;;;;;;;10.00;7.10;;;;;;;;;;4960552;28;20062;-82
2020/12/19 06:58:27;;;;;;;12.77;9.27;;;;;;;;;;4961064;28;20020;-81
2020/12/19 07:00:53;;;;;;;16.53;10.47;;;;;;;;;;4961455;28;20016;-80
2020/12/19 07:03:34;;;;;;;14.80;8.97;;;;;;;;;;4962107;28;20071;-83
2020/12/19 07:06:11;;;;;;;8.80;4.77;;;;;;;;;;5044831;23;20123;-83
2020/12/19 07:08:37;;;;;;;11.70;8.03;;;;;;;;;;4973024;28;20038;-81
2020/12/19 07:11:03;;;;;;;12.70;7.93;;;;;;;;;;4976479;29;20018;-82
2020/12/19 07:13:52;;;;;;;13.87;8.73;;;;;;;;;;4980241;28;20055;-83
2020/12/19 07:16:36;;;;;;;16.07;10.03;;;;;;;;;;4977103;29;20055;-82
2020/12/19 07:19:14;;;;;;;16.35;9.10;;;;;;;;;;4980384;28;20043;-81
2020/12/19 07:21:40;;;;;;;17.57;10.60;;;;;;;;;;4975362;29;20034;-81
2020/12/19 07:24:06;;;;;;;14.80;9.60;;;;;;;;;;4972465;29;20047;-81
2020/12/19 07:26:32;;;;;;;16.67;10.33;;;;;;;;;;4969217;29;20031;-81
2020/12/19 07:28:59;;;;;;;17.33;10.93;;;;;;;;;;4968260;29;20038;-82
2020/12/19 07:31:25;;;;;;;14.47;9.27;;;;;;;;;;4971713;29;20007;-80
2020/12/19 07:33:51;;;;;;;17.00;10.90;;;;;;;;;;4967381;29;20042;-82
2020/12/19 07:36:19;;;;;;;15.90;9.97;;;;;;;;;;4969827;29;20122;-81
2020/12/19 07:38:46;;;;;;;15.43;8.93;;;;;;;;;;4968932;29;20049;-82
2020/12/19 07:41:12;;;;;;;15.97;8.73;;;;;;;;;;4967652;29;20022;-81
2020/12/19 07:43:38;;;;;;;12.20;7.87;;;;;;;;;;4973618;29;20023;-82
2020/12/19 07:46:04;;;;;;;8.97;4.67;;;;;;;;;;4971861;29;20404;-83
2020/12/19 07:48:30;;;;;;;15.03;9.67;;;;;;;;;;4974548;29;20027;-81
2020/12/19 07:50:56;;;;;;;12.40;7.83;;;;;;;;;;4975324;29;20023;-82
2020/12/19 07:53:22;;;;;;;14.23;8.33;;;;;;;;;;4971890;28;20038;-82
2020/12/19 07:55:49;;;;;;;20.20;10.07;;;;;;;;;;4971405;29;20031;-83
2020/12/19 07:58:16;;;;;;;8.03;4.73;;;;;;;;;;4971904;28;20043;-82
2020/12/19 08:00:42;;;;;;;13.77;10.30;;;;;;;;;;4974191;29;20058;-82
2020/12/19 08:03:12;;;;;;;11.57;6.43;;;;;;;;;;4971330;29;20003;-82
2020/12/19 08:05:38;;;;;;;14.33;7.30;;;;;;;;;;4974001;29;20027;-83
2020/12/19 08:08:04;;;;;;;12.20;5.27;;;;;;;;;;4973013;29;20062;-83
2020/12/19 08:10:30;;;;;;;18.53;12.53;;;;;;;;;;4970306;29;20046;-82
2020/12/19 08:12:57;;;;;;;15.57;10.07;;;;;;;;;;4971069;29;20051;-82
2020/12/19 08:15:23;;;;;;;10.17;6.80;;;;;;;;;;4975045;29;20051;-82
2020/12/19 08:17:54;;;;;;;17.70;10.50;;;;;;;;;;4979493;28;20015;-83
2020/12/19 08:22:56;;;;;;;18.77;11.27;;;;;;;;;;5222571;23;20056;-83
2020/12/19 08:25:23;;;;;;;18.90;13.37;;;;;;;;;;4958856;29;20056;-83
2020/12/19 08:27:51;;;;;;;14.67;5.70;;;;;;;;;;4956806;29;20012;-84
2020/12/19 08:30:18;;;;;;;20.00;12.83;;;;;;;;;;4959273;29;20032;-82
2020/12/19 08:32:56;;;;;;;10.30;5.37;;;;;;;;;;4960323;29;20035;-83
2020/12/19 08:40:35;;;;;;;17.33;11.97;;;;;;;;;;5177424;23;20047;-81
2020/12/19 08:43:01;;;;;;;18.23;10.57;;;;;;;;;;4959511;29;20044;-81
2020/12/19 08:45:31;;;;;;;24.07;17.03;;;;;;;;;;4960375;29;20039;-80
2020/12/19 08:48:01;;;;;;;17.97;10.63;;;;;;;;;;4957881;29;20042;-81
2020/12/19 08:50:32;;;;;;;24.70;13.67;;;;;;;;;;4959292;29;20039;-82
2020/12/19 08:53:05;;;;;;;20.00;14.60;;;;;;;;;;4955086;29;20112;-81
2020/12/19 08:55:31;;;;;;;20.70;14.67;;;;;;;;;;4955711;29;20039;-82
2020/12/19 08:57:57;;;;;;;25.37;14.57;;;;;;;;;;4957844;29;20032;-82
2020/12/19 09:00:23;;;;;;;21.27;12.27;;;;;;;;;;4959993;29;20048;-81
2020/12/19 09:02:50;;;;;;;20.77;13.00;;;;;;;;;;4960106;29;20047;-82
2020/12/19 09:05:29;;;;;;;22.77;13.77;;;;;;;;;;4959904;29;20015;-81
2020/12/19 09:07:59;;;;;;;20.63;14.83;;;;;;;;;;5170990;23;20070;-81
2020/12/19 09:10:27;;;;;;;27.83;17.40;;;;;;;;;;4950394;29;20028;-82
2020/12/19 09:13:08;;;;;;;24.27;14.07;;;;;;;;;;4937236;29;20048;-81
2020/12/19 09:15:34;;;;;;;27.07;16.47;;;;;;;;;;4950274;29;20695;-81
2020/12/19 09:18:13;;;;;;;16.23;9.17;;;;;;;;;;4954317;29;20032;-81
2020/12/19 09:20:39;;;;;;;17.33;12.10;;;;;;;;;;4954137;29;20022;-83
2020/12/19 09:23:05;;;;;;;22.73;14.07;;;;;;;;;;4957431;29;20016;-82
2020/12/19 09:25:32;;;;;;;13.90;7.87;;;;;;;;;;4959489;29;20020;-83
2020/12/19 09:27:58;;;;;;;25.13;11.80;;;;;;;;;;4956732;29;20031;-82
2020/12/19 09:30:24;;;;;;;23.13;14.20;;;;;;;;;;4959711;29;20032;-81
2020/12/19 09:32:50;;;;;;;20.33;12.63;;;;;;;;;;4940740;29;20016;-83
2020/12/19 09:35:16;;;;;;;28.00;16.57;;;;;;;;;;4955449;29;20039;-84
2020/12/19 09:37:43;;;;;;;27.23;15.40;;;;;;;;;;4951192;29;20059;-81
2020/12/19 09:40:09;;;;;;;24.83;16.27;;;;;;;;;;4952277;29;20164;-84
2020/12/19 09:42:35;;;;;;;14.97;5.40;;;;;;;;;;4955921;29;20103;-80
2020/12/19 09:45:01;;;;;;;25.30;14.53;;;;;;;;;;4954648;29;20024;-82
2020/12/19 09:47:27;;;;;;;22.63;13.00;;;;;;;;;;4940303;29;20031;-81
2020/12/19 09:49:53;;;;;;;20.80;15.47;;;;;;;;;;4940512;29;20040;-82
2020/12/19 09:52:19;;;;;;;27.23;15.50;;;;;;;;;;4942611;29;20016;-84
2020/12/19 09:54:45;;;;;;;20.20;14.57;;;;;;;;;;4942668;29;20024;-82
2020/12/19 09:57:12;;;;;;;24.90;16.87;;;;;;;;;;4959656;29;20020;-81
2020/12/19 09:59:38;;;;;;;24.17;14.77;;;;;;;;;;4958295;29;20036;-82
2020/12/19 10:02:04;;;;;;;17.13;11.13;;;;;;;;;;4958859;29;20028;-83
2020/12/19 10:04:30;;;;;;;19.43;12.60;;;;;;;;;;4936467;29;20034;-81
2020/12/19 10:06:56;;;;;;;25.20;13.70;;;;;;;;;;4951933;29;20059;-81
2020/12/19 10:09:22;;;;;;;19.17;11.53;;;;;;;;;;4949879;29;20039;-80
2020/12/19 10:11:48;;;;;;;17.57;13.13;;;;;;;;;;4951346;29;20032;-82
2020/12/19 10:14:14;;;;;;;21.67;13.63;;;;;;;;;;4951790;29;20013;-81
2020/12/19 10:16:40;;;;;;;26.50;15.63;;;;;;;;;;4950655;29;20035;-83
2020/12/19 10:19:06;;;;;;;18.17;11.93;;;;;;;;;;4951578;29;20055;-81
2020/12/19 10:21:32;;;;;;;9.17;4.87;;;;;;;;;;4937427;29;20375;-81
2020/12/19 10:23:58;;;;;;;18.53;10.03;;;;;;;;;;4954362;29;20040;-81
2020/12/19 10:26:24;;;;;;;18.83;11.73;;;;;;;;;;4953494;29;20111;-81
2020/12/19 10:28:51;;;;;;;27.10;13.37;;;;;;;;;;4954657;29;20059;-80
2020/12/19 10:31:17;;;;;;;19.37;12.53;;;;;;;;;;4956643;29;20016;-81
2020/12/19 10:33:43;;;;;;;17.43;11.67;;;;;;;;;;4957393;29;20076;-83
2020/12/19 10:36:09;;;;;;;18.07;13.50;;;;;;;;;;4956468;29;20019;-82
2020/12/19 10:38:35;;;;;;;22.03;11.83;;;;;;;;;;4953997;29;20132;-82
2020/12/19 10:41:01;;;;;;;18.70;10.27;;;;;;;;;;4954149;29;20032;-82
2020/12/19 10:43:27;;;;;;;18.73;12.80;;;;;;;;;;4938283;29;20017;-81
2020/12/19 10:45:53;;;;;;;19.77;11.47;;;;;;;;;;4953815;29;20029;-81
2020/12/19 10:48:19;;;;;;;17.73;10.53;;;;;;;;;;4953922;29;20028;-82
2020/12/19 10:50:45;;;;;;;15.77;9.50;;;;;;;;;;4949938;29;20115;-82
2020/12/19 10:53:11;;;;;;;13.83;8.47;;;;;;;;;;4947254;29;20083;-80
2020/12/19 10:55:38;;;;;;;17.40;11.37;;;;;;;;;;4949699;29;20028;-80
2020/12/19 10:58:04;;;;;;;15.03;9.37;;;;;;;;;;4948832;29;20032;-81
2020/12/19 11:00:30;;;;;;;13.93;8.30;;;;;;;;;;4946170;29;20131;-81
2020/12/19 11:02:56;;;;;;;14.77;10.43;;;;;;;;;;4950596;29;20040;-81
2020/12/19 11:05:22;;;;;;;11.83;7.00;;;;;;;;;;4953806;29;20036;-82
2020/12/19 11:07:48;;;;;;;16.07;10.33;;;;;;;;;;4954672;29;20048;-79
2020/12/19 11:10:14;;;;;;;13.17;8.00;;;;;;;;;;4954293;29;20394;-82
2020/12/19 11:12:40;;;;;;;16.53;10.53;;;;;;;;;;4936184;29;20060;-80
2020/12/19 11:15:06;;;;;;;18.80;10.00;;;;;;;;;;4936316;29;20036;-82
2020/12/19 11:17:32;;;;;;;11.93;7.00;;;;;;;;;;4951497;29;20039;-81
2020/12/19 11:19:58;;;;;;;13.87;6.47;;;;;;;;;;4952920;29;20103;-81
2020/12/19 11:22:24;;;;;;;12.70;8.70;;;;;;;;;;4954748;29;20036;-82
2020/12/19 11:24:51;;;;;;;12.77;7.87;;;;;;;;;;4955504;29;20032;-82
2020/12/19 11:27:17;;;;;;;12.90;8.83;;;;;;;;;;4956127;29;20035;-81
2020/12/19 11:29:43;;;;;;;10.70;8.50;;;;;;;;;;4939142;29;20016;-81
2020/12/19 11:32:09;;;;;;;11.73;7.67;;;;;;;;;;4938790;29;20032;-82
2020/12/19 11:34:36;;;;;;;11.97;7.67;;;;;;;;;;4954290;29;20028;-81
2020/12/19 11:37:02;;;;;;;14.13;6.00;;;;;;;;;;5359622;23;20040;-83
2020/12/19 11:39:32;;;;;;;15.27;7.60;;;;;;;;;;5271149;23;20059;-82
2020/12/19 11:42:02;;;;;;;11.37;7.57;;;;;;;;;;5007199;23;20067;-83
2020/12/19 11:44:28;;;;;;;12.77;7.20;;;;;;;;;;4935926;29;20032;-82
2020/12/19 11:46:54;;;;;;;9.93;7.43;;;;;;;;;;4949998;29;20035;-82
2020/12/19 11:49:20;;;;;;;11.80;7.07;;;;;;;;;;4946987;29;20028;-81
2020/12/19 11:51:47;;;;;;;11.23;6.13;;;;;;;;;;4934649;29;20024;-82
2020/12/19 11:54:13;;;;;;;9.20;6.33;;;;;;;;;;4948072;29;20100;-82
2020/12/19 11:56:39;;;;;;;13.17;6.23;;;;;;;;;;4945749;29;20070;-82
2020/12/19 11:59:05;;;;;;;10.20;5.33;;;;;;;;;;4947432;29;20028;-81
2020/12/19 12:01:31;;;;;;;10.30;5.50;;;;;;;;;;4947617;29;20035;-82
2020/12/19 12:03:58;;;;;;;12.50;6.47;;;;;;;;;;4947463;29;20028;-80
2020/12/19 12:06:34;;;;;;;9.13;4.70;;;;;;;;;;4931619;29;20113;-82
2020/12/19 12:09:00;;;;;;;9.83;5.13;;;;;;;;;;4949466;29;20490;-81
2020/12/19 12:11:29;;;;;;;8.27;5.50;;;;;;;;;;4947228;29;20091;-81
2020/12/19 12:13:56;;;;;;;8.77;5.77;;;;;;;;;;4947771;29;20116;-81
2020/12/19 12:16:22;;;;;;;13.10;9.50;;;;;;;;;;4949673;29;20030;-81
2020/12/19 12:18:49;;;;;;;9.60;5.80;;;;;;;;;;4950887;29;20027;-80
2020/12/19 12:21:15;;;;;;;8.60;6.00;;;;;;;;;;4952588;29;20074;-82
2020/12/19 12:23:41;;;;;;;8.03;4.87;;;;;;;;;;4953752;29;20043;-81
2020/12/19 12:26:07;;;;;;;9.60;5.60;;;;;;;;;;4955440;29;20019;-82
2020/12/19 12:28:33;;;;;;;9.43;6.20;;;;;;;;;;4941446;29;20060;-81
2020/12/19 12:30:59;;;;;;;13.03;6.90;;;;;;;;;;4951759;29;20032;-79
2020/12/19 12:33:25;;;;;;;9.77;7.00;;;;;;;;;;4955970;29;20016;-83
2020/12/19 12:38:26;;;;;;;13.00;7.53;;;;;;;;;;5020834;23;20039;-81
2020/12/19 12:40:53;;;;;;;11.13;7.77;;;;;;;;;;4952248;29;20032;-81
2020/12/19 12:43:19;;;;;;;11.47;8.00;;;;;;;;;;4953611;29;20080;-80
2020/12/19 12:45:47;;;;;;;11.67;7.83;;;;;;;;;;4957331;29;20032;-82
2020/12/19 12:48:14;;;;;;;14.20;9.03;;;;;;;;;;4956386;29;20038;-80
2020/12/19 12:50:40;;;;;;;10.63;8.43;;;;;;;;;;5087475;23;20078;-81
2020/12/19 12:53:06;;;;;;;11.10;8.10;;;;;;;;;;4947065;29;20042;-81
2020/12/19 12:55:32;;;;;;;12.47;7.90;;;;;;;;;;4957833;29;20055;-81
2020/12/19 12:57:58;;;;;;;13.87;7.77;;;;;;;;;;4958244;29;20055;-81
2020/12/19 13:00:24;;;;;;;14.70;9.70;;;;;;;;;;4957288;29;20043;-81
2020/12/19 13:02:50;;;;;;;13.07;8.77;;;;;;;;;;4956157;29;20099;-80
2020/12/19 13:05:16;;;;;;;14.83;8.93;;;;;;;;;;4956348;29;20023;-79
2020/12/19 13:07:42;;;;;;;13.40;8.30;;;;;;;;;;4960326;29;20027;-81
2020/12/19 13:10:08;;;;;;;11.37;10.13;;;;;;;;;;4958159;29;20022;-79
2020/12/19 13:12:34;;;;;;;11.07;9.03;;;;;;;;;;4955645;29;20031;-79
2020/12/19 13:15:00;;;;;;;13.30;10.27;;;;;;;;;;4956582;29;20035;-81
2020/12/19 13:17:26;;;;;;;15.47;10.10;;;;;;;;;;4945424;29;20011;-81
2020/12/19 13:19:52;;;;;;;14.37;9.60;;;;;;;;;;4942412;29;20071;-80
2020/12/19 13:22:18;;;;;;;13.40;10.10;;;;;;;;;;4962732;29;20032;-80
2020/12/19 13:24:45;;;;;;;11.93;8.90;;;;;;;;;;4960238;29;20027;-82
2020/12/19 13:27:11;;;;;;;15.70;11.43;;;;;;;;;;4958516;29;20039;-82
2020/12/19 13:29:37;;;;;;;16.63;12.40;;;;;;;;;;4952842;29;20024;-81
2020/12/19 13:32:03;;;;;;;19.13;12.87;;;;;;;;;;4954514;29;20048;-81
2020/12/19 13:34:29;;;;;;;16.23;12.50;;;;;;;;;;4952860;29;20008;-81
2020/12/19 13:36:55;;;;;;;14.43;11.93;;;;;;;;;;4954397;29;20027;-81
2020/12/19 13:39:22;;;;;;;14.33;11.00;;;;;;;;;;4953788;29;20038;-82
2020/12/19 13:41:48;;;;;;;19.10;13.50;;;;;;;;;;4954397;29;20014;-80
2020/12/19 13:44:15;;;;;;;13.73;11.03;;;;;;;;;;4954878;29;20024;-81
2020/12/19 13:46:41;;;;;;;16.57;11.37;;;;;;;;;;4958583;29;20004;-81
2020/12/19 13:49:07;;;;;;;14.30;9.10;;;;;;;;;;4959633;29;20019;-80
2020/12/19 13:51:33;;;;;;;15.80;11.23;;;;;;;;;;4957990;29;20083;-80
2020/12/19 13:53:59;;;;;;;16.27;11.10;;;;;;;;;;4959693;29;20031;-81
2020/12/19 13:56:25;;;;;;;17.43;11.30;;;;;;;;;;4950787;29;20051;-81
2020/12/19 13:58:51;;;;;;;14.60;11.43;;;;;;;;;;4952811;29;20036;-79
2020/12/19 14:01:18;;;;;;;14.47;10.30;;;;;;;;;;4950307;29;20024;-80
2020/12/19 14:03:44;;;;;;;13.57;9.03;;;;;;;;;;4950593;29;20031;-81
2020/12/19 14:06:12;;;;;;;15.53;8.77;;;;;;;;;;4952364;29;20027;-80
2020/12/19 14:08:39;;;;;;;13.43;9.53;;;;;;;;;;4954770;29;20015;-81
2020/12/19 14:11:05;;;;;;;12.03;8.97;;;;;;;;;;4961008;29;20022;-81
2020/12/19 14:13:31;;;;;;;12.13;9.50;;;;;;;;;;4956407;29;20028;-79
2020/12/19 14:15:57;;;;;;;15.60;8.80;;;;;;;;;;4961676;29;20012;-81
2020/12/19 14:18:26;;;;;;;14.27;7.43;;;;;;;;;;4952379;29;20035;-79
2020/12/19 14:20:55;;;;;;;17.23;8.20;;;;;;;;;;4950119;29;20040;-81
2020/12/19 14:23:21;;;;;;;11.67;6.93;;;;;;;;;;4934714;29;20036;-79
2020/12/19 14:25:47;;;;;;;7.97;5.90;;;;;;;;;;4950525;29;20071;-81
2020/12/19 14:28:13;;;;;;;8.73;5.27;;;;;;;;;;4953825;29;20008;-79
2020/12/19 14:30:39;;;;;;;7.90;5.53;;;;;;;;;;4949707;29;20028;-80
2020/12/19 14:33:05;;;;;;;13.07;6.87;;;;;;;;;;4954336;29;20051;-79
2020/12/19 14:35:31;;;;;;;13.30;7.03;;;;;;;;;;4958304;29;20115;-80
2020/12/19 14:37:57;;;;;;;9.97;6.80;;;;;;;;;;4948415;29;20031;-79
2020/12/19 14:40:24;;;;;;;13.00;7.10;;;;;;;;;;4948729;29;20040;-81
2020/12/19 14:42:50;;;;;;;10.70;6.13;;;;;;;;;;4949113;29;20032;-80
2020/12/19 14:45:16;;;;;;;10.03;6.33;;;;;;;;;;4944879;29;20050;-80
2020/12/19 14:47:42;;;;;;;12.00;6.17;;;;;;;;;;4949513;29;20036;-80
2020/12/19 14:50:08;;;;;;;12.57;6.47;;;;;;;;;;4929764;29;20087;-80